createdAt,value
2018-04-13T00:02:09.932Z,16.50
2018-04-13T00:04:38.294Z,16.54
2018-04-13T00:07:06.621Z,16.56
2018-04-13T00:09:34.977Z,16.48
2018-04-13T00:12:03.308Z,16.40
2018-04-13T00:14:31.632Z,16.46
2018-04-13T00:16:59.985Z,16.47
2018-04-13T00:19:28.317Z,16.43
2018-04-13T00:21:56.671Z,16.35
2018-04-13T00:24:25.011Z,16.42
2018-04-13T00:26:53.377Z,16.36
2018-04-13T00:29:21.804Z,16.28
2018-04-13T00:31:50.158Z,16.19
2018-04-13T00:34:18.480Z,16.16
2018-04-13T00:36:46.828Z,16.18
2018-04-13T00:39:15.161Z,16.10
2018-04-13T00:41:43.509Z,16.07
2018-04-13T00:44:11.878Z,16.14
2018-04-13T00:46:40.188Z,16.15
2018-04-13T00:49:08.517Z,16.16
2018-04-13T00:51:36.882Z,16.12
2018-04-13T00:54:05.213Z,16.09
2018-04-13T00:56:33.560Z,16.08
2018-04-13T00:59:01.906Z,16.08
2018-04-13T01:01:30.261Z,16.07
2018-04-13T01:03:58.596Z,16.07
2018-04-13T01:06:26.941Z,16.00
2018-04-13T01:08:55.284Z,15.97
2018-04-13T01:11:23.624Z,15.96
2018-04-13T01:13:51.956Z,15.92
2018-04-13T01:16:20.310Z,15.82
2018-04-13T01:18:48.643Z,15.75
2018-04-13T01:21:16.994Z,15.63
2018-04-13T01:23:45.323Z,15.62
2018-04-13T01:26:13.668Z,15.52
2018-04-13T01:28:41.996Z,15.50
2018-04-13T01:31:10.380Z,15.40
2018-04-13T01:33:38.704Z,15.24
2018-04-13T01:36:07.056Z,15.20
2018-04-13T01:38:35.385Z,15.19
2018-04-13T01:41:03.732Z,15.14
2018-04-13T01:43:32.056Z,15.08
2018-04-13T01:46:00.409Z,15.07
2018-04-13T01:48:28.737Z,15.03
2018-04-13T01:50:57.085Z,15.02
2018-04-13T01:53:25.416Z,15.02
2018-04-13T01:55:53.769Z,15.07
2018-04-13T01:58:22.102Z,15.17
2018-04-13T02:00:50.451Z,15.24
2018-04-13T02:03:18.781Z,15.23
2018-04-13T02:05:47.131Z,15.27
2018-04-13T02:08:15.465Z,15.36
2018-04-13T02:10:43.826Z,15.40
2018-04-13T02:13:12.149Z,15.48
2018-04-13T02:15:40.482Z,15.52
2018-04-13T02:18:08.832Z,15.60
2018-04-13T02:20:37.161Z,15.65
2018-04-13T02:23:05.517Z,15.67
2018-04-13T02:25:33.841Z,15.70
2018-04-13T02:28:02.185Z,15.69
2018-04-13T02:30:30.514Z,15.64
2018-04-13T02:32:58.868Z,15.61
2018-04-13T02:35:27.192Z,15.61
2018-04-13T02:37:55.549Z,15.62
2018-04-13T02:40:23.880Z,15.61
2018-04-13T02:42:52.242Z,15.60
2018-04-13T02:45:20.572Z,15.62
2018-04-13T02:47:48.920Z,15.58
2018-04-13T02:50:17.249Z,15.51
2018-04-13T02:52:45.597Z,15.44
2018-04-13T02:55:13.938Z,15.36
2018-04-13T02:57:42.285Z,15.35
2018-04-13T03:00:10.613Z,15.34
2018-04-13T03:02:38.965Z,15.25
2018-04-13T03:05:07.292Z,15.14
2018-04-13T03:07:35.696Z,15.00
2018-04-13T03:10:03.977Z,14.92
2018-04-13T03:12:32.320Z,14.87
2018-04-13T03:15:00.653Z,14.85
2018-04-13T03:17:29.001Z,14.87
2018-04-13T03:19:57.328Z,14.87
2018-04-13T03:22:25.682Z,14.89
2018-04-13T03:24:54.024Z,14.91
2018-04-13T03:27:22.386Z,14.90
2018-04-13T03:29:50.713Z,14.91
2018-04-13T03:32:19.065Z,14.87
2018-04-13T03:34:47.392Z,14.80
2018-04-13T03:37:15.745Z,14.74
2018-04-13T03:39:44.073Z,14.76
2018-04-13T03:42:12.424Z,14.80
2018-04-13T03:44:40.757Z,14.77
2018-04-13T03:47:09.118Z,14.74
2018-04-13T03:49:37.450Z,14.75
2018-04-13T03:52:05.794Z,14.74
2018-04-13T03:54:34.172Z,14.75
2018-04-13T03:57:02.473Z,14.76
2018-04-13T03:59:30.800Z,14.71
2018-04-13T04:01:59.148Z,14.70
2018-04-13T04:04:27.481Z,14.69
2018-04-13T04:06:55.825Z,14.75
2018-04-13T04:09:24.153Z,14.82
2018-04-13T04:11:52.509Z,14.80
2018-04-13T04:14:20.849Z,14.77
2018-04-13T04:16:49.185Z,14.76
2018-04-13T04:19:17.528Z,14.77
2018-04-13T04:21:57.809Z,14.83
2018-04-13T04:24:37.820Z,14.87
2018-04-13T04:27:06.173Z,14.88
2018-04-13T04:29:34.492Z,14.93
2018-04-13T04:32:02.840Z,14.96
2018-04-13T04:34:31.253Z,14.95
2018-04-13T04:36:59.577Z,14.98
2018-04-13T04:39:27.969Z,14.96
2018-04-13T04:41:56.305Z,14.94
2018-04-13T04:44:24.656Z,14.94
2018-04-13T04:46:52.985Z,14.94
2018-04-13T04:49:21.342Z,14.96
2018-04-13T04:51:49.672Z,15.04
2018-04-13T04:54:18.028Z,15.05
2018-04-13T04:56:46.353Z,15.01
2018-04-13T04:59:14.711Z,15.02
2018-04-13T05:01:43.053Z,15.00
2018-04-13T05:04:11.404Z,14.96
2018-04-13T05:06:40.704Z,14.93
2018-04-13T05:09:09.053Z,14.89
2018-04-13T05:11:37.386Z,14.87
2018-04-13T05:14:05.752Z,14.86
2018-04-13T05:16:35.037Z,14.88
2018-04-13T05:19:03.397Z,14.89
2018-04-13T05:21:31.731Z,14.92
2018-04-13T05:24:00.073Z,14.96
2018-04-13T05:26:28.431Z,14.97
2018-04-13T05:28:56.769Z,14.90
2018-04-13T05:31:25.094Z,14.88
2018-04-13T05:33:53.453Z,14.81
2018-04-13T05:36:21.785Z,14.77
2018-04-13T05:38:50.129Z,14.74
2018-04-13T05:41:18.490Z,14.75
2018-04-13T05:43:46.832Z,14.85
2018-04-13T05:46:15.156Z,14.89
2018-04-13T05:48:43.516Z,14.91
2018-04-13T05:51:11.898Z,14.91
2018-04-13T05:53:40.241Z,14.90
2018-04-13T05:56:08.569Z,14.89
2018-04-13T05:58:36.924Z,14.98
2018-04-13T06:01:05.253Z,15.07
2018-04-13T06:03:33.605Z,15.12
2018-04-13T06:06:01.939Z,15.12
2018-04-13T06:08:30.287Z,15.15
2018-04-13T06:10:58.609Z,15.27
2018-04-13T06:13:26.979Z,15.31
2018-04-13T06:15:55.289Z,15.38
2018-04-13T06:18:23.633Z,15.43
2018-04-13T06:20:51.965Z,15.43
2018-04-13T06:23:20.396Z,15.54
2018-04-13T06:25:48.708Z,15.56
2018-04-13T06:28:17.100Z,15.59
2018-04-13T06:30:45.432Z,15.58
2018-04-13T06:33:13.808Z,15.71
2018-04-13T06:35:42.132Z,15.83
2018-04-13T06:38:10.469Z,15.88
2018-04-13T06:40:38.812Z,15.92
2018-04-13T06:43:07.144Z,15.96
2018-04-13T06:45:35.497Z,15.98
2018-04-13T06:48:03.859Z,16.02
2018-04-13T06:50:32.204Z,16.05
2018-04-13T06:53:00.528Z,16.14
2018-04-13T06:55:28.880Z,16.13
2018-04-13T06:57:57.207Z,16.09
2018-04-13T07:00:25.552Z,16.06
2018-04-13T07:02:53.884Z,16.01
2018-04-13T07:05:22.236Z,15.98
2018-04-13T07:07:50.568Z,16.02
2018-04-13T07:10:18.945Z,16.08
2018-04-13T07:12:47.277Z,16.06
2018-04-13T07:15:15.629Z,16.09
2018-04-13T07:17:43.957Z,16.09
2018-04-13T07:20:12.304Z,16.13
2018-04-13T07:22:40.628Z,16.16
2018-04-13T07:25:08.973Z,16.18
2018-04-13T07:27:37.307Z,16.15
2018-04-13T07:30:05.642Z,16.15
2018-04-13T07:32:33.966Z,16.16
2018-04-13T07:35:02.309Z,16.14
2018-04-13T07:37:30.968Z,16.18
2018-04-13T07:39:58.984Z,16.24
2018-04-13T07:42:27.317Z,16.23
2018-04-13T07:44:55.660Z,16.25
2018-04-13T07:47:23.985Z,16.31
2018-04-13T07:49:52.329Z,16.34
2018-04-13T07:52:20.676Z,16.37
2018-04-13T07:54:49.001Z,16.33
2018-04-13T07:57:18.333Z,16.33
2018-04-13T07:59:46.690Z,16.39
2018-04-13T08:02:15.009Z,16.47
2018-04-13T08:04:43.356Z,16.62
2018-04-13T08:07:11.826Z,16.71
2018-04-13T08:09:40.024Z,16.74
2018-04-13T08:12:08.344Z,16.82
2018-04-13T08:14:36.692Z,16.95
2018-04-13T08:17:05.014Z,17.10
2018-04-13T08:19:33.360Z,17.10
2018-04-13T08:22:01.685Z,17.05
2018-04-13T08:24:30.035Z,17.03
2018-04-13T08:26:58.356Z,17.04
2018-04-13T08:29:26.709Z,16.99
2018-04-13T08:31:55.033Z,16.95
2018-04-13T08:34:23.400Z,16.93
2018-04-13T08:36:51.725Z,16.91
2018-04-13T08:39:20.048Z,17.00
2018-04-13T08:41:48.429Z,17.13
2018-04-13T08:44:16.724Z,17.24
2018-04-13T08:46:45.079Z,17.18
2018-04-13T08:49:13.493Z,17.14
2018-04-13T08:51:41.740Z,17.13
2018-04-13T08:54:10.117Z,17.12
2018-04-13T08:56:38.405Z,17.08
2018-04-13T08:59:06.732Z,17.10
2018-04-13T09:01:35.076Z,17.14
2018-04-13T09:04:03.400Z,17.10
2018-04-13T09:06:31.790Z,17.01
2018-04-13T09:09:00.073Z,17.05
2018-04-13T09:11:28.421Z,17.12
2018-04-13T09:13:56.749Z,17.08
2018-04-13T09:16:25.089Z,17.13
2018-04-13T09:18:53.412Z,17.11
2018-04-13T09:21:21.753Z,17.17
2018-04-13T09:23:50.082Z,17.28
2018-04-13T09:26:18.425Z,17.23
2018-04-13T09:28:46.749Z,17.21
2018-04-13T09:31:15.105Z,17.25
2018-04-13T09:33:43.430Z,17.28
2018-04-13T09:36:11.773Z,17.36
2018-04-13T09:38:40.105Z,17.44
2018-04-13T09:41:08.461Z,17.42
2018-04-13T09:43:36.801Z,17.52
2018-04-13T09:46:05.186Z,17.66
2018-04-13T09:48:33.484Z,17.74
2018-04-13T09:51:01.868Z,17.74
2018-04-13T09:53:30.166Z,17.85
2018-04-13T09:55:58.816Z,17.83
2018-04-13T09:58:27.213Z,17.81
2018-04-13T10:01:00.404Z,17.83
2018-04-13T10:06:31.074Z,17.74
2018-04-13T10:08:59.421Z,17.81
2018-04-13T10:11:27.772Z,17.82
2018-04-13T10:13:56.633Z,17.89
2018-04-13T10:16:24.980Z,18.01
2018-04-13T10:18:53.314Z,18.10
2018-04-13T10:21:21.669Z,18.17
2018-04-13T10:23:50.001Z,18.21
2018-04-13T10:26:21.133Z,18.20
2018-04-13T10:28:49.464Z,18.14
2018-04-13T10:31:17.812Z,18.09
2018-04-13T10:33:46.148Z,18.01
2018-04-13T10:36:14.500Z,17.99
2018-04-13T10:38:42.832Z,17.96
2018-04-13T10:41:11.185Z,17.66
2018-04-13T10:43:39.527Z,17.43
2018-04-13T10:46:07.881Z,17.35
2018-04-13T10:48:36.217Z,17.30
2018-04-13T10:51:04.565Z,17.22
2018-04-13T10:53:32.892Z,17.13
2018-04-13T10:56:01.240Z,17.16
2018-04-13T10:58:29.573Z,17.11
2018-04-13T11:00:58.328Z,17.00
2018-04-13T11:03:26.922Z,16.99
2018-04-13T11:05:55.567Z,16.95
2018-04-13T11:08:23.953Z,16.90
2018-04-13T11:10:52.737Z,16.90
2018-04-13T11:13:21.208Z,16.89
2018-04-13T11:15:49.521Z,16.88
2018-04-13T11:18:17.872Z,16.86
2018-04-13T11:20:46.201Z,16.86
2018-04-13T11:23:14.551Z,16.81
2018-04-13T11:25:42.893Z,16.92
2018-04-13T11:28:11.248Z,16.91
2018-04-13T11:30:39.617Z,16.91
2018-04-13T11:33:07.993Z,16.93
2018-04-13T11:35:36.337Z,16.91
2018-04-13T11:38:04.717Z,16.87
2018-04-13T11:40:33.057Z,16.86
2018-04-13T11:43:01.409Z,16.82
2018-04-13T11:45:29.752Z,16.80
2018-04-13T11:47:58.139Z,16.81
2018-04-13T11:50:26.749Z,16.89
2018-04-13T11:52:55.100Z,16.89
2018-04-13T11:55:23.465Z,16.81
2018-04-13T11:57:51.829Z,16.77
2018-04-13T12:00:20.164Z,16.79
2018-04-13T12:02:48.533Z,16.79
2018-04-13T12:05:16.867Z,16.84
2018-04-13T12:07:45.225Z,16.92
2018-04-13T12:10:13.559Z,16.98
2018-04-13T12:12:41.923Z,17.03
2018-04-13T12:15:10.274Z,17.05
2018-04-13T12:17:38.625Z,17.07
2018-04-13T12:20:07.010Z,17.01
2018-04-13T12:22:35.365Z,16.89
2018-04-13T12:25:03.757Z,16.88
2018-04-13T12:27:32.465Z,16.97
2018-04-13T12:30:00.802Z,16.95
2018-04-13T12:32:29.264Z,16.96
2018-04-13T12:34:57.606Z,16.93
2018-04-13T12:37:25.954Z,16.94
2018-04-13T12:39:54.293Z,16.90
2018-04-13T12:42:22.650Z,16.90
2018-04-13T12:44:51.034Z,16.83
2018-04-13T12:47:19.425Z,16.84
2018-04-13T12:49:47.760Z,16.86
2018-04-13T12:52:16.133Z,16.86
2018-04-13T12:54:44.689Z,16.86
2018-04-13T12:57:12.896Z,16.90
2018-04-13T12:59:41.216Z,16.88
2018-04-13T13:02:09.593Z,16.89
2018-04-13T13:04:37.917Z,16.88
2018-04-13T13:07:06.432Z,16.84
2018-04-13T13:09:34.936Z,16.81
2018-04-13T13:12:03.613Z,16.70
2018-04-13T13:14:31.948Z,16.71
2018-04-13T13:17:00.297Z,16.61
2018-04-13T13:19:28.657Z,16.52
2018-04-13T13:21:56.992Z,16.53
2018-04-13T13:24:25.358Z,16.53
2018-04-13T13:26:53.736Z,16.50
2018-04-13T13:29:22.072Z,16.50
2018-04-13T13:31:50.417Z,16.49
2018-04-13T13:34:18.908Z,16.40
2018-04-13T13:36:48.301Z,16.31
2018-04-13T13:39:16.660Z,16.29
2018-04-13T13:41:44.988Z,16.33
2018-04-13T13:44:14.287Z,16.33
2018-04-13T13:46:44.722Z,16.25
2018-04-13T13:49:13.104Z,16.16
2018-04-13T13:51:41.440Z,16.15
2018-04-13T13:54:10.624Z,16.14
2018-04-13T13:56:38.959Z,16.12
2018-04-13T13:59:07.336Z,16.11
2018-04-13T14:01:35.669Z,16.10
2018-04-13T14:04:04.065Z,16.11
2018-04-13T14:06:32.374Z,16.11
2018-04-13T14:09:00.732Z,16.08
2018-04-13T14:11:29.069Z,16.06
2018-04-13T14:13:58.364Z,16.96
2018-04-13T14:16:27.658Z,16.38
2018-04-13T14:18:56.017Z,16.22
2018-04-13T14:21:24.360Z,16.11
2018-04-13T14:23:52.725Z,16.02
2018-04-13T14:26:21.985Z,15.97
2018-04-13T14:28:50.345Z,15.92
2018-04-13T14:31:18.690Z,15.88
2018-04-13T14:33:47.046Z,15.88
2018-04-13T14:36:19.184Z,15.90
2018-04-13T14:38:48.322Z,15.92
2018-04-13T14:41:16.653Z,15.93
2018-04-13T14:43:45.018Z,15.95
2018-04-13T14:46:13.362Z,15.96
2018-04-13T14:48:41.730Z,15.97
2018-04-13T14:51:10.060Z,15.95
2018-04-13T14:53:38.439Z,15.91
2018-04-13T14:56:07.124Z,15.86
2018-04-13T14:58:35.508Z,15.86
2018-04-13T15:02:47.994Z,15.79
2018-04-13T15:05:16.354Z,15.74
2018-04-13T15:07:44.685Z,15.61
2018-04-13T15:10:13.047Z,15.61
2018-04-13T15:12:41.380Z,15.60
2018-04-13T15:15:09.737Z,15.58
2018-04-13T15:19:05.509Z,15.63
2018-04-13T15:21:33.841Z,15.70
2018-04-13T15:24:02.201Z,15.78
2018-04-13T15:26:31.523Z,15.79
2018-04-13T15:28:59.885Z,15.66
2018-04-13T15:31:28.229Z,15.60
2018-04-13T15:33:56.582Z,15.49
2018-04-13T15:36:24.924Z,15.38
2018-04-13T15:38:53.284Z,15.35
2018-04-13T15:41:21.621Z,15.34
2018-04-13T15:43:49.974Z,15.30
2018-04-13T15:46:18.309Z,15.27
2018-04-13T15:48:46.733Z,15.26
2018-04-13T15:51:15.061Z,15.27
2018-04-13T15:53:43.417Z,15.24
2018-04-13T15:56:11.753Z,15.29
2018-04-13T15:58:40.112Z,15.32
2018-04-13T16:01:08.452Z,15.30
2018-04-13T16:03:36.785Z,15.31
2018-04-13T16:07:58.124Z,15.45
2018-04-13T16:13:06.752Z,15.37
2018-04-13T16:15:35.113Z,15.32
2018-04-13T16:18:03.467Z,15.30
2018-04-13T16:20:31.817Z,15.27
2018-04-13T16:23:00.161Z,15.26
2018-04-13T16:27:31.745Z,15.18
2018-04-13T16:30:00.129Z,15.21
2018-04-13T16:32:28.460Z,15.23
2018-04-13T16:34:56.841Z,15.27
2018-04-13T16:37:25.190Z,15.23
2018-04-13T16:39:53.545Z,15.19
2018-04-13T16:42:21.880Z,15.18
2018-04-13T16:44:50.240Z,15.22
2018-04-13T16:47:18.590Z,15.23
2018-04-13T16:49:46.958Z,15.27
2018-04-13T16:52:15.289Z,15.25
2018-04-13T16:54:43.648Z,15.18
2018-04-13T16:57:12.006Z,15.16
2018-04-13T16:59:41.101Z,15.14
2018-04-13T17:02:09.438Z,15.11
2018-04-13T17:04:37.797Z,15.06
2018-04-13T17:07:06.141Z,15.01
2018-04-13T17:09:34.502Z,15.00
2018-04-13T17:12:02.852Z,14.99
2018-04-13T17:14:31.214Z,14.99
2018-04-13T17:16:59.560Z,14.99
2018-04-13T17:19:27.917Z,14.98
2018-04-13T17:21:56.264Z,14.95
2018-04-13T17:24:24.645Z,14.94
2018-04-13T17:26:52.981Z,14.90
2018-04-13T17:29:21.364Z,14.93
2018-04-13T17:31:49.685Z,14.94
2018-04-13T17:34:18.025Z,14.94
2018-04-13T17:36:46.389Z,14.95
2018-04-13T17:39:14.733Z,14.89
2018-04-13T17:41:43.097Z,14.86
2018-04-13T17:44:11.445Z,14.81
2018-04-13T17:46:39.809Z,14.80
2018-04-13T17:49:08.148Z,14.81
2018-04-13T17:51:36.510Z,14.81
2018-04-13T17:54:04.861Z,14.82
2018-04-13T17:56:34.200Z,14.81
2018-04-13T17:59:02.548Z,14.80
2018-04-13T18:01:30.908Z,14.79
2018-04-13T18:03:59.240Z,14.81
2018-04-13T18:06:27.603Z,14.82
2018-04-13T18:08:55.933Z,14.78
2018-04-13T18:11:24.294Z,14.80
2018-04-13T18:13:52.633Z,14.77
2018-04-13T18:16:21.360Z,14.82
2018-04-13T18:18:49.704Z,14.80
2018-04-13T18:21:18.055Z,14.82
2018-04-13T18:23:46.396Z,14.82
2018-04-13T18:26:14.761Z,14.77
2018-04-13T18:28:43.103Z,14.77
2018-04-13T18:31:11.469Z,14.77
2018-04-13T18:33:39.804Z,14.75
2018-04-13T18:36:08.166Z,14.75
2018-04-13T18:38:36.508Z,14.79
2018-04-13T18:41:04.869Z,14.75
2018-04-13T18:43:33.212Z,14.76
2018-04-13T18:46:01.573Z,14.77
2018-04-13T18:48:29.913Z,14.80
2018-04-13T18:50:58.273Z,14.79
2018-04-13T18:53:26.625Z,14.82
2018-04-13T18:55:55.272Z,14.85
2018-04-13T18:58:23.608Z,14.82
2018-04-13T19:00:51.977Z,14.78
2018-04-13T19:03:20.315Z,14.77
2018-04-13T19:05:48.673Z,14.77
2018-04-13T19:08:17.018Z,14.78
2018-04-13T19:10:45.376Z,14.74
2018-04-13T19:13:13.722Z,14.74
2018-04-13T19:15:42.261Z,14.73
2018-04-13T19:18:10.598Z,14.73
2018-04-13T19:20:38.953Z,14.76
2018-04-13T19:23:07.293Z,14.78
2018-04-13T19:25:35.661Z,14.79
2018-04-13T19:28:04.001Z,14.80
2018-04-13T19:30:32.332Z,14.80
2018-04-13T19:33:00.693Z,14.80
2018-04-13T19:35:30.033Z,14.84
2018-04-13T19:37:58.395Z,14.84
2018-04-13T19:40:26.733Z,14.81
2018-04-13T19:42:55.089Z,14.85
2018-04-13T19:45:23.430Z,14.84
2018-04-13T19:47:51.785Z,14.85
2018-04-13T19:50:20.127Z,14.83
2018-04-13T19:52:48.482Z,14.85
2018-04-13T19:55:16.818Z,14.85
2018-04-13T19:57:45.220Z,14.83
2018-04-13T20:00:13.509Z,14.80
2018-04-13T20:02:41.873Z,14.78
2018-04-13T20:05:10.216Z,14.74
2018-04-13T20:07:38.573Z,14.69
2018-04-13T20:10:06.921Z,14.70
2018-04-13T20:12:35.291Z,14.70
2018-04-13T20:15:04.405Z,14.66
2018-04-13T20:17:32.822Z,14.67
2018-04-13T20:20:01.166Z,14.67
2018-04-13T20:22:29.520Z,14.63
2018-04-13T20:24:57.861Z,14.64
2018-04-13T20:27:26.225Z,14.59
2018-04-13T20:29:54.585Z,14.58
2018-04-13T20:32:22.942Z,14.60
2018-04-13T20:34:51.272Z,14.63
2018-04-13T20:37:19.640Z,14.59
2018-04-13T20:39:48.916Z,14.58
2018-04-13T20:42:17.275Z,14.61
2018-04-13T20:44:45.616Z,14.61
2018-04-13T20:47:13.980Z,14.57
2018-04-13T20:49:42.333Z,14.59
2018-04-13T20:52:10.696Z,14.58
2018-04-13T20:54:39.074Z,14.57
2018-04-13T20:57:07.400Z,14.60
2018-04-13T20:59:35.744Z,14.64
2018-04-13T21:02:04.109Z,14.65
2018-04-13T21:04:32.453Z,14.66
2018-04-13T21:07:00.821Z,14.66
2018-04-13T21:09:29.170Z,14.62
2018-04-13T21:11:57.532Z,14.55
2018-04-13T21:14:25.880Z,14.56
2018-04-13T21:16:54.237Z,14.61
2018-04-13T21:19:22.581Z,14.62
2018-04-13T21:21:50.945Z,14.62
2018-04-13T21:24:19.293Z,14.59
2018-04-13T21:26:47.654Z,14.55
2018-04-13T21:29:15.997Z,14.55
2018-04-13T21:31:44.346Z,14.52
2018-04-13T21:34:13.628Z,14.51
2018-04-13T21:36:41.976Z,14.51
2018-04-13T21:39:10.351Z,14.48
2018-04-13T21:41:38.693Z,14.43
2018-04-13T21:44:07.048Z,14.41
2018-04-13T21:46:35.397Z,14.41
2018-04-13T21:49:03.764Z,14.42
2018-04-13T21:51:32.108Z,14.40
2018-04-13T21:54:00.473Z,14.41
2018-04-13T21:56:29.741Z,14.39
2018-04-13T21:58:58.101Z,14.34
2018-04-13T22:01:26.444Z,14.36
2018-04-13T22:03:54.813Z,14.39
2018-04-13T22:06:24.066Z,14.40
2018-04-13T22:08:52.436Z,14.37
2018-04-13T22:11:20.781Z,14.36
2018-04-13T22:13:49.149Z,14.32
2018-04-13T22:16:17.493Z,14.32
2018-04-13T22:18:45.860Z,14.28
2018-04-13T22:21:14.204Z,14.26
2018-04-13T22:23:42.572Z,14.25
2018-04-13T22:26:10.912Z,14.19
2018-04-13T22:28:39.273Z,14.14
2018-04-13T22:31:07.622Z,14.00
2018-04-13T22:33:35.989Z,13.94
2018-04-13T22:36:04.333Z,13.93
2018-04-13T22:38:32.697Z,13.93
2018-04-13T22:41:01.045Z,13.90
2018-04-13T22:43:29.411Z,13.87
2018-04-13T22:45:57.753Z,13.86
2018-04-13T22:48:26.116Z,13.77
2018-04-13T22:50:54.456Z,13.77
2018-04-13T22:53:22.821Z,13.77
2018-04-13T22:55:51.173Z,13.77
2018-04-13T22:58:19.534Z,13.76
2018-04-13T23:00:47.873Z,13.77
2018-04-13T23:03:16.245Z,13.77
2018-04-13T23:05:44.597Z,13.71
2018-04-13T23:08:13.929Z,13.70
2018-04-13T23:10:42.273Z,13.70
2018-04-13T23:13:10.633Z,13.67
2018-04-13T23:15:38.982Z,13.65
2018-04-13T23:18:07.345Z,13.68
2018-04-13T23:20:35.689Z,13.68
2018-04-13T23:23:04.048Z,13.73
2018-04-13T23:25:32.388Z,13.75
2018-04-13T23:28:01.028Z,13.73
2018-04-13T23:30:29.405Z,13.74
2018-04-13T23:32:57.785Z,13.66
2018-04-13T23:35:26.125Z,13.61
2018-04-13T23:37:54.473Z,13.58
2018-04-13T23:40:22.841Z,13.52
2018-04-13T23:42:51.180Z,13.44
2018-04-13T23:45:19.548Z,13.42
2018-04-13T23:47:47.892Z,13.38
2018-04-13T23:50:16.271Z,13.37
2018-04-13T23:52:44.604Z,13.37
2018-04-13T23:55:12.969Z,13.37
2018-04-13T23:57:41.321Z,13.34
